Linda Reed — WDE8222 — position and weather

sailwx.info

Track history (hours):
 
Tides and Currents Weather Stations Pressure Air Temp Water Temp Dewpoint Dewpoint Depression Visibility Wind Speed Wind Dir Waves Ship Positions

Linda Reed

Owner: Crounse Corporation, Maysville, KY. More information available from US FCC via Universal Licensing System and Coast Guard Vessel Documentation Center.

Last reported at 2015-May-24 17:31 UTC. Time now 2015-May-26 05:38 UTC.
Position N 38°47' W 084°06'.

Length 45 m.

Type: Tow > 200 m length. MMSI: 367402990.

Date/timePositionNaut miles runAvg speedWind from/ knotsBaromVisibWave heightAir tempDewpointWater temp
2015-May-24 17:31N 38°47' W 084°06'5 2.6
2015-May-24 15:33N 38°48' W 084°12'4 4.0
2015-May-24 14:33N 38°52' W 084°14'1 0.4
2015-May-24 13:07N 38°52' W 084°14'0 0.2
2015-May-24 12:33N 38°52' W 084°14'0 0.1
2015-May-24 11:32N 38°52' W 084°14'0 0.4
2015-May-24 10:33N 38°53' W 084°14'1 0.9
2015-May-24 09:32N 38°52' W 084°14'4 4.5
2015-May-24 08:33N 38°48' W 084°11'2 1.6
2015-May-24 07:32N 38°48' W 084°09'1 1.3
2015-May-24 06:32N 38°47' W 084°08'4 4.5
2015-May-24 05:33N 38°46' W 084°02'5 4.7
2015-May-24 04:33N 38°47' W 083°56'7 0.5
2015-May-23 15:10N 38°42' W 083°49'0 0.0
2015-May-23 14:34N 38°42' W 083°49'0 0.0
2015-May-23 13:09N 38°42' W 083°49'0 0.0
2015-May-23 12:03N 38°42' W 083°49'0 0.0
2015-May-23 11:32N 38°42' W 083°49'0 0.0
2015-May-23 09:32N 38°42' W 083°49'7 2.9
2015-May-23 07:10N 38°38' W 083°42'  
Track history (hours):
 
Tides and Currents Weather Stations Pressure Air Temp Water Temp Dewpoint Dewpoint Depression Visibility Wind Speed Wind Dir Waves Ship Positions

Linda Reed

Owner: Crounse Corporation, Maysville, KY. More information available from US FCC via Universal Licensing System and Coast Guard Vessel Documentation Center.

Last reported at 2015-May-24 17:31 UTC. Time now 2015-May-26 05:38 UTC.
Position N 38°47' W 084°06'.

Length 45 m.

Type: Tow > 200 m length. MMSI: 367402990.

Date/timePositionNaut miles runAvg speedWind from/ knotsBaromVisibWave heightAir tempDewpointWater temp
2015-May-24 17:31N 38°47' W 084°06'5 2.6
2015-May-24 15:33N 38°48' W 084°12'4 4.0
2015-May-24 14:33N 38°52' W 084°14'1 0.4
2015-May-24 13:07N 38°52' W 084°14'0 0.2
2015-May-24 12:33N 38°52' W 084°14'0 0.1
2015-May-24 11:32N 38°52' W 084°14'0 0.4
2015-May-24 10:33N 38°53' W 084°14'1 0.9
2015-May-24 09:32N 38°52' W 084°14'4 4.5
2015-May-24 08:33N 38°48' W 084°11'2 1.6
2015-May-24 07:32N 38°48' W 084°09'1 1.3
2015-May-24 06:32N 38°47' W 084°08'4 4.5
2015-May-24 05:33N 38°46' W 084°02'5 4.7
2015-May-24 04:33N 38°47' W 083°56'7 0.5
2015-May-23 15:10N 38°42' W 083°49'0 0.0
2015-May-23 14:34N 38°42' W 083°49'0 0.0
2015-May-23 13:09N 38°42' W 083°49'0 0.0
2015-May-23 12:03N 38°42' W 083°49'0 0.0
2015-May-23 11:32N 38°42' W 083°49'0 0.0
2015-May-23 09:32N 38°42' W 083°49'7 2.9
2015-May-23 07:10N 38°38' W 083°42'  

Dump ship's entire track history